Saturday, August 18, 2018, 2:51 AM GMT
Back to Local

CYTR, Trenton, Ont.

Location: , , Canada Lat: 44.117
Local Time: 2:51 AM GMT ( 2:51 GMT) Lon: -77.533
Time Zone: GMT Elev: 278 ft

Show me the last for .
Show Coded

Time T Td Feel RH Dir Speed Gust Alt SLP Vis Weather Sky Remarks
2018-08-18 02:43 72 66 76 83 40° 9 - 29.88 29.88 15 -SHRA BKN032 OVC062 None
2018-08-18 02:00 72 66 76 83 30° 6 - 29.89 29.89 15 BKN045 OVC140 None
2018-08-18 01:33 72 68 76 88 50° 5 - 29.89 29.88 15 BKN040 OVC060 Lighting in the vicinity
2018-08-18 01:00 73 68 77 83 50° 6 - 29.88 29.88 15 TS BKN028 OVC063 Lighting in the vicinity
2018-08-18 00:20 73 68 77 83 40° 12 - 29.86 29.85 15 FEW016 BKN022 OVC093 None
2018-08-18 00:00 73 70 77 88 20° 12 - 29.85 29.85 15 TS SCT016 BKN022 OVC067 Lighting in the vicinity
2018-08-17 23:31 75 72 79 88 350° 3 - 29.85 29.85 15 TS BKN009 BKN030 BKN061 OVC093 None
2018-08-17 23:16 75 72 79 88 340° 7 - 29.84 29.84 15 BKN011 BKN030TCU BKN061 OVC080 None
2018-08-17 23:00 77 72 81 83 310° 3 - 29.84 29.84 15 SCT015 SCT040TCU BKN061 OVC080 None
2018-08-17 22:14 77 73 82 88 240° 3 - 29.84 29.84 12 BKN013 BKN043 OVC080 None
2018-08-17 22:00 77 73 82 88 230° 3 - 29.84 29.84 10 BKN040 OVC100 None
2018-08-17 21:20 77 73 82 88 250° 5 - 29.83 29.83 10 FEW015 BKN026 BKN040 None
2018-08-17 21:00 75 73 80 94 270° 5 - 29.84 29.83 8 BKN015 OVC030 None
2018-08-17 20:28 75 73 80 94 230° 7 - 29.85 29.85 7 BKN009 OVC030 None
2018-08-17 20:00 75 73 80 94 220° 7 - 29.85 29.85 6 BR BKN007 OVC020 None
2018-08-17 19:24 75 73 80 94 200° 3 - 29.86 29.86 4 BR SCT007 OVC025 None
2018-08-17 19:00 75 72 79 88 220° 7 - 29.87 29.87 4 -SHRA BR BKN013 OVC045 None
2018-08-17 18:50 75 72 79 88 220° 8 - 29.88 29.88 6 -SHRA BR BKN013 OVC042 None
2018-08-17 18:33 75 72 79 88 210° 9 - 29.88 29.88 10 BKN009 OVC042 None
2018-08-17 18:00 77 72 81 83 210° 9 - 29.88 29.87 10 SCT009 BKN038 None
2018-08-17 17:46 77 73 82 88 210° 9 - 29.88 29.88 8 BKN009 OVC040 None
2018-08-17 17:25 75 72 79 88 220° 10 - 29.88 29.88 8 -SHRA BKN008 OVC040 None
2018-08-17 17:00 77 73 82 88 210° 10 - 29.87 29.87 8 BKN013 BKN050 None
2018-08-17 16:00 75 70 79 83 210° 12 - 29.90 29.90 10 BKN013 OVC030 None
2018-08-17 15:00 75 70 79 83 200° 9 - 29.91 29.91 10 BKN013 OVC030 None
2018-08-17 14:00 73 72 78 94 190° 6 - 29.92 29.92 8 BKN013 OVC035 None
2018-08-17 13:19 73 72 78 94 190° 6 - 29.92 29.92 8 BKN015 OVC028 None
2018-08-17 13:00 73 72 78 94 180° 6 - 29.92 29.92 8 -SHRA SCT012 BKN028 None
2018-08-17 12:45 73 70 77 88 180° 6 - 29.93 29.93 8 -SHRA SCT014 OVC028 None
2018-08-17 12:20 73 70 77 88 180° 8 - 29.95 29.95 8 FEW006 OVC017 None
2018-08-17 12:00 73 70 77 88 180° 7 - 29.95 29.95 6 BR SCT006 OVC020 None
2018-08-17 11:00 72 70 76 94 170° 6 - 29.95 29.95 4 BR BKN006 OVC030 None
2018-08-17 10:50 72 70 76 94 160° 6 - 29.95 29.95 4 BR BKN005 OVC030 None
2018-08-17 10:24 72 70 76 94 170° 5 - 29.95 29.94 4 -SHRA BR BKN005 OVC030 None
2018-08-17 10:00 72 70 76 94 200° 9 - 29.96 29.96 3 SHRA BR BKN008 OVC020 None
2018-08-17 09:55 72 70 76 94 230° 9 - 29.96 29.96 3 SHRA BR BKN015 OVC045 None
2018-08-17 09:17 73 72 78 94 180° 7 - 29.96 29.96 4 -SHRA BR BKN013 OVC027 None
2018-08-17 09:10 75 72 79 88 190° 8 - 29.96 29.96 6 -SHRA BR SCT013 BKN027 OVC043 None
2018-08-17 09:00 75 72 79 88 220° 5 - 29.96 29.96 7 -SHRA FEW015 BKN032 OVC066 None
2018-08-17 08:16 75 72 79 88 170° 3 - 29.96 29.96 15 -SHRA FEW030 FEW066 OVC097 None
2018-08-17 08:00 73 72 78 94 170° 3 - 29.97 29.96 15 FEW020 OVC097 None
2018-08-17 07:33 73 72 78 94 - Calm - 29.97 29.97 15 -SHRA FEW020 BKN077 OVC097 None
2018-08-17 07:00 73 72 78 94 140° 3 - 29.98 29.97 15 FEW020 BKN077 OVC100 None
2018-08-17 06:00 73 70 77 88 160° 5 - 29.99 29.99 15 BKN120 OVC160 None
2018-08-17 05:00 73 70 77 88 140° 3 - 30.01 30.01 15 OVC120 None
2018-08-17 04:00 73 70 77 88 150° 2 - 30.02 30.02 12 FEW050 BKN150 None
2018-08-17 03:00 73 70 77 88 140° 3 - 30.02 30.02 12 FEW040 SCT100 None

Support USWX by starting your Amazon purchase here.